createdAt,value
2019-03-24T00:01:00.689Z,101142.00
2019-03-24T00:03:28.330Z,101151.20
2019-03-24T00:05:55.939Z,101146.38
2019-03-24T00:08:23.548Z,101149.91
2019-03-24T00:10:51.168Z,101156.47
2019-03-24T00:13:18.794Z,101151.67
2019-03-24T00:15:46.443Z,101153.84
2019-03-24T00:18:14.084Z,101155.60
2019-03-24T00:20:41.704Z,101170.06
2019-03-24T00:23:09.377Z,101163.04
2019-03-24T00:25:37.059Z,101152.11
2019-03-24T00:28:04.648Z,101153.45
2019-03-24T00:30:32.274Z,101152.57
2019-03-24T00:32:59.875Z,101159.14
2019-03-24T00:35:27.479Z,101163.95
2019-03-24T00:37:55.079Z,101149.50
2019-03-24T00:40:22.673Z,101168.30
2019-03-24T00:42:50.267Z,101172.30
2019-03-24T00:45:17.863Z,101171.88
2019-03-24T00:47:45.460Z,101174.95
2019-03-24T00:50:13.158Z,101180.62
2019-03-24T00:52:40.739Z,101190.73
2019-03-24T00:55:08.464Z,101182.85
2019-03-24T00:57:37.588Z,101185.95
2019-03-24T01:00:06.297Z,101190.33
2019-03-24T01:02:33.914Z,101189.48
2019-03-24T01:05:01.519Z,101188.17
2019-03-24T01:07:31.158Z,101191.23
2019-03-24T01:09:58.760Z,101187.73
2019-03-24T01:12:26.355Z,101176.80
2019-03-24T01:14:53.960Z,101178.13
2019-03-24T01:17:21.551Z,101196.97
2019-03-24T01:19:49.158Z,101196.09
2019-03-24T01:22:16.774Z,101193.50
2019-03-24T01:24:44.372Z,101191.33
2019-03-24T01:27:11.959Z,101197.02
2019-03-24T01:29:39.551Z,101205.77
2019-03-24T01:32:07.146Z,101209.27
2019-03-24T01:34:34.781Z,101212.34
2019-03-24T01:37:02.402Z,101208.86
2019-03-24T01:39:30.025Z,101215.02
2019-03-24T01:41:57.604Z,101211.09
2019-03-24T01:44:25.231Z,101217.20
2019-03-24T01:46:52.829Z,101219.38
2019-03-24T01:49:20.421Z,101224.67
2019-03-24T01:51:48.027Z,101230.38
2019-03-24T01:54:15.662Z,101233.44
2019-03-24T01:56:43.261Z,101236.49
2019-03-24T01:59:10.852Z,101238.27
2019-03-24T02:01:38.448Z,101234.76
2019-03-24T02:04:06.052Z,101229.95
2019-03-24T02:06:33.669Z,101236.52
2019-03-24T02:09:01.270Z,101233.90
2019-03-24T02:11:28.860Z,101238.28
2019-03-24T02:13:56.459Z,101237.39
2019-03-24T02:16:24.062Z,101244.42
2019-03-24T02:18:51.648Z,101260.16
2019-03-24T02:21:19.253Z,101263.69
2019-03-24T02:23:46.864Z,101267.63
2019-03-24T02:26:14.451Z,101261.51
2019-03-24T02:28:42.074Z,101265.42
2019-03-24T02:31:09.702Z,101272.44
2019-03-24T02:33:37.296Z,101282.95
2019-03-24T02:36:04.939Z,101283.80
2019-03-24T02:38:32.630Z,101286.02
2019-03-24T02:41:00.238Z,101293.88
2019-03-24T02:43:27.835Z,101292.99
2019-03-24T02:45:55.460Z,101290.81
2019-03-24T02:48:23.058Z,101300.88
2019-03-24T02:50:50.702Z,101294.75
2019-03-24T02:53:18.304Z,101300.88
2019-03-24T02:55:45.898Z,101290.81
2019-03-24T02:58:13.505Z,101285.14
2019-03-24T03:00:41.098Z,101288.61
2019-03-24T03:03:08.698Z,101293.42
2019-03-24T03:05:36.314Z,101286.02
2019-03-24T03:08:03.928Z,101282.08
2019-03-24T03:10:31.520Z,101289.49
2019-03-24T03:12:59.138Z,101293.00
2019-03-24T03:15:26.755Z,101296.05
2019-03-24T03:17:54.343Z,101310.91
2019-03-24T03:20:21.949Z,101318.34
2019-03-24T03:22:49.579Z,101316.58
2019-03-24T03:25:17.252Z,101311.77
2019-03-24T03:27:44.923Z,101312.66
2019-03-24T03:30:12.656Z,101311.34
2019-03-24T03:32:40.283Z,101316.13
2019-03-24T03:35:09.449Z,101312.22
2019-03-24T03:37:37.094Z,101318.33
2019-03-24T03:40:05.922Z,101317.86
2019-03-24T03:42:33.511Z,101316.13
2019-03-24T03:45:01.128Z,101313.50
2019-03-24T03:47:28.722Z,101321.80
2019-03-24T03:49:56.350Z,101321.78
2019-03-24T03:52:23.957Z,101322.22
2019-03-24T03:54:51.586Z,101322.64
2019-03-24T03:57:19.180Z,101313.91
2019-03-24T03:59:46.785Z,101322.66
2019-03-24T04:02:14.389Z,101308.23
2019-03-24T04:04:41.980Z,101324.39
2019-03-24T04:07:09.581Z,101325.70
2019-03-24T04:09:37.209Z,101319.59
2019-03-24T04:12:04.911Z,101332.68
2019-03-24T04:14:32.509Z,101332.23
2019-03-24T04:17:07.152Z,101339.68
2019-03-24T04:19:29.608Z,101347.98
2019-03-24T04:21:57.211Z,101348.42
2019-03-24T04:24:24.822Z,101356.70
2019-03-24T04:26:52.433Z,101358.00
2019-03-24T04:29:20.024Z,101357.13
2019-03-24T04:31:47.627Z,101363.69
2019-03-24T04:34:15.243Z,101361.05
2019-03-24T04:36:42.842Z,101356.67
2019-03-24T04:39:10.449Z,101361.05
2019-03-24T04:41:38.052Z,101355.35
2019-03-24T04:44:05.682Z,101352.27
2019-03-24T04:46:33.284Z,101351.39
2019-03-24T04:49:00.921Z,101352.27
2019-03-24T04:51:28.495Z,101357.92
2019-03-24T04:53:56.112Z,101357.50
2019-03-24T04:56:23.739Z,101365.77
2019-03-24T04:58:51.331Z,101366.64
2019-03-24T05:01:18.932Z,101363.56
2019-03-24T05:03:47.751Z,101363.16
2019-03-24T05:06:15.416Z,101372.73
2019-03-24T05:08:43.419Z,101364.45
2019-03-24T05:11:11.010Z,101370.56
2019-03-24T05:13:38.635Z,101375.84
2019-03-24T05:16:06.219Z,101378.47
2019-03-24T05:18:33.815Z,101376.72
2019-03-24T05:21:01.472Z,101377.59
2019-03-24T05:23:29.064Z,101371.02
2019-03-24T05:25:56.671Z,101371.05
2019-03-24T05:28:24.266Z,101379.78
2019-03-24T05:30:51.859Z,101381.11
2019-03-24T05:33:19.462Z,101383.28
2019-03-24T05:35:47.051Z,101392.46
2019-03-24T05:38:14.647Z,101398.17
2019-03-24T05:40:42.251Z,101393.83
2019-03-24T05:43:09.838Z,101385.95
2019-03-24T05:45:37.445Z,101382.45
2019-03-24T05:48:05.047Z,101382.91
2019-03-24T05:50:32.649Z,101376.36
2019-03-24T05:53:00.254Z,101376.83
2019-03-24T05:55:27.850Z,101377.25
2019-03-24T05:57:55.442Z,101390.36
2019-03-24T06:00:23.058Z,101386.00
2019-03-24T06:02:50.702Z,101386.87
2019-03-24T06:05:18.295Z,101385.59
2019-03-24T06:07:45.896Z,101393.02
2019-03-24T06:10:13.508Z,101395.22
2019-03-24T06:12:41.104Z,101410.07
2019-03-24T06:15:09.098Z,101400.47
2019-03-24T06:17:47.120Z,101406.19
2019-03-24T06:20:06.701Z,101407.95
2019-03-24T06:22:34.298Z,101403.56
2019-03-24T06:25:01.910Z,101406.66
2019-03-24T06:27:29.507Z,101412.77
2019-03-24T06:29:57.201Z,101408.86
2019-03-24T06:32:24.814Z,101405.39
2019-03-24T06:34:52.547Z,101406.28
2019-03-24T06:37:20.149Z,101410.65
2019-03-24T06:39:47.762Z,101411.55
2019-03-24T06:42:15.504Z,101396.69
2019-03-24T06:44:43.167Z,101405.86
2019-03-24T06:47:10.760Z,101404.98
2019-03-24T06:49:38.358Z,101400.18
2019-03-24T06:52:05.955Z,101402.39
2019-03-24T06:54:33.553Z,101397.11
2019-03-24T06:57:01.194Z,101396.27
2019-03-24T06:59:28.791Z,101390.12
2019-03-24T07:01:56.394Z,101393.19
2019-03-24T07:04:23.990Z,101388.37
2019-03-24T07:06:51.595Z,101391.42
2019-03-24T07:09:19.211Z,101388.37
2019-03-24T07:11:46.819Z,101390.53
2019-03-24T07:14:14.441Z,101373.03
2019-03-24T07:16:42.028Z,101388.77
2019-03-24T07:19:09.631Z,101392.27
2019-03-24T07:21:37.227Z,101387.03
2019-03-24T07:24:15.392Z,101378.23
2019-03-24T07:26:42.994Z,101384.38
2019-03-24T07:29:10.614Z,101386.98
2019-03-24T07:31:38.202Z,101376.89
2019-03-24T07:34:05.805Z,101382.13
2019-03-24T07:36:33.412Z,101382.54
2019-03-24T07:39:01.013Z,101382.07
2019-03-24T07:41:28.622Z,101368.02
2019-03-24T07:43:57.294Z,101374.14
2019-03-24T07:46:24.974Z,101365.81
2019-03-24T07:48:52.628Z,101363.18
2019-03-24T07:51:20.242Z,101368.41
2019-03-24T07:53:47.836Z,101354.78
2019-03-24T07:56:15.586Z,101358.30
2019-03-24T07:58:52.835Z,101367.44
2019-03-24T08:01:20.449Z,101362.15
2019-03-24T08:03:48.266Z,101357.22
2019-03-24T08:06:15.928Z,101356.52
2019-03-24T08:08:44.363Z,101353.06
2019-03-24T08:11:12.280Z,101356.40
2019-03-24T08:13:39.891Z,101350.11
2019-03-24T08:16:07.647Z,101346.74
2019-03-24T08:18:35.274Z,101342.63
2019-03-24T08:21:02.996Z,101344.59
2019-03-24T08:23:30.622Z,101341.89
2019-03-24T08:25:58.242Z,101339.95
2019-03-24T08:28:25.909Z,101337.58
2019-03-24T08:30:53.515Z,101340.66
2019-03-24T08:33:30.300Z,101340.82
2019-03-24T08:36:00.848Z,101327.22
2019-03-24T08:38:28.481Z,101338.66
2019-03-24T08:40:56.082Z,101327.57
2019-03-24T08:43:33.314Z,101322.05
2019-03-24T08:46:00.923Z,101325.95
2019-03-24T08:48:28.546Z,101328.34
2019-03-24T08:50:56.311Z,101317.63
2019-03-24T08:53:23.963Z,101316.41
2019-03-24T08:55:51.619Z,101306.81
2019-03-24T08:58:19.214Z,101298.12
2019-03-24T09:00:46.838Z,101303.88
2019-03-24T09:03:14.553Z,101298.37
2019-03-24T09:05:42.176Z,101299.30
2019-03-24T09:08:09.791Z,101286.22
2019-03-24T09:10:37.427Z,101289.93
2019-03-24T09:13:07.972Z,101282.35
2019-03-24T09:15:35.559Z,101283.63
2019-03-24T09:18:03.424Z,101290.58
2019-03-24T09:20:40.994Z,101289.31
2019-03-24T09:23:00.549Z,101289.38
2019-03-24T09:25:28.282Z,101301.36
2019-03-24T09:27:56.006Z,101296.12
2019-03-24T09:30:31.121Z,101300.84
2019-03-24T09:32:58.751Z,101294.61
2019-03-24T09:35:26.358Z,101297.92
2019-03-24T09:37:54.092Z,101285.47
2019-03-24T09:40:27.031Z,101292.68
2019-03-24T09:42:54.917Z,101292.97
2019-03-24T09:45:31.841Z,101285.77
2019-03-24T09:48:00.564Z,101285.86
2019-03-24T09:50:28.257Z,101293.55
2019-03-24T09:52:56.053Z,101286.86
2019-03-24T09:55:23.707Z,101283.89
2019-03-24T09:57:51.366Z,101282.37
2019-03-24T10:00:19.052Z,101278.20
2019-03-24T10:02:46.683Z,101277.21
2019-03-24T10:05:14.296Z,101273.77
2019-03-24T10:07:41.955Z,101266.92
2019-03-24T10:10:10.842Z,101254.36
2019-03-24T10:12:38.421Z,101245.12
2019-03-24T10:15:06.786Z,101245.05
2019-03-24T10:17:34.501Z,101243.97
2019-03-24T10:20:02.162Z,101242.80
2019-03-24T10:22:29.828Z,101232.25
2019-03-24T10:24:57.525Z,101232.08
2019-03-24T10:27:25.104Z,101224.91
2019-03-24T10:29:52.744Z,101218.62
2019-03-24T10:32:20.392Z,101221.16
2019-03-24T10:34:48.013Z,101218.00
2019-03-24T10:37:15.660Z,101210.59
2019-03-24T10:39:43.297Z,101212.15
2019-03-24T10:42:10.935Z,101211.02
2019-03-24T10:44:40.374Z,101210.67
2019-03-24T10:47:08.096Z,101209.11
2019-03-24T10:49:35.750Z,101204.67
2019-03-24T10:52:03.438Z,101209.03
2019-03-24T10:54:31.112Z,101200.84
2019-03-24T10:56:58.832Z,101194.53
2019-03-24T10:59:26.429Z,101192.13
2019-03-24T11:01:54.029Z,101185.91
2019-03-24T11:04:21.642Z,101190.47
2019-03-24T11:06:49.410Z,101180.56
2019-03-24T11:09:17.059Z,101179.04
2019-03-24T11:11:44.683Z,101165.16
2019-03-24T11:14:12.311Z,101166.88
2019-03-24T11:16:39.909Z,101161.95
2019-03-24T11:19:07.549Z,101162.34
2019-03-24T11:21:35.235Z,101154.53
2019-03-24T11:24:02.830Z,101161.78
2019-03-24T11:26:30.460Z,101160.40
2019-03-24T11:28:58.084Z,101146.41
2019-03-24T11:31:25.709Z,101144.02
2019-03-24T11:33:53.374Z,101144.63
2019-03-24T11:36:21.029Z,101128.84
2019-03-24T11:38:48.690Z,101129.09
2019-03-24T11:41:19.018Z,101131.19
2019-03-24T11:43:46.615Z,101130.30
2019-03-24T11:46:14.268Z,101117.47
2019-03-24T11:48:41.876Z,101118.61
2019-03-24T11:51:09.529Z,101100.03
2019-03-24T11:53:37.216Z,101096.69
2019-03-24T11:56:04.900Z,101090.42
2019-03-24T11:58:32.555Z,101083.69
2019-03-24T12:01:00.164Z,101081.53
2019-03-24T12:03:27.782Z,101080.82
2019-03-24T12:05:55.411Z,101064.78
2019-03-24T12:08:23.055Z,101060.80
2019-03-24T12:10:50.753Z,101057.14
2019-03-24T12:13:18.382Z,101050.95
2019-03-24T12:15:46.011Z,101052.12
2019-03-24T12:18:13.627Z,101039.05
2019-03-24T12:20:41.276Z,101031.42
2019-03-24T12:23:08.885Z,101023.46
2019-03-24T12:25:36.544Z,101011.41
2019-03-24T12:28:04.126Z,101016.63
2019-03-24T12:30:31.758Z,101016.09
2019-03-24T12:32:59.381Z,101004.88
2019-03-24T12:35:27.043Z,101001.77
2019-03-24T12:37:54.679Z,100991.82
2019-03-24T12:40:22.299Z,100996.09
2019-03-24T12:42:49.990Z,100982.33
2019-03-24T12:45:17.772Z,100978.52
2019-03-24T12:47:45.393Z,100980.30
2019-03-24T12:50:13.104Z,100963.95
2019-03-24T12:52:40.738Z,100968.30
2019-03-24T12:55:08.677Z,100955.75
2019-03-24T12:57:36.316Z,100967.29
2019-03-24T13:00:05.923Z,100958.11
2019-03-24T13:02:33.637Z,100950.67
2019-03-24T13:05:01.346Z,100944.45
2019-03-24T13:07:28.956Z,100949.55
2019-03-24T13:09:56.611Z,100937.73
2019-03-24T13:12:24.247Z,100941.89
2019-03-24T13:14:51.891Z,100934.34
2019-03-24T13:17:19.525Z,100924.27
2019-03-24T13:19:47.128Z,100929.09
2019-03-24T13:22:14.740Z,100922.56
2019-03-24T13:24:42.372Z,100918.98
2019-03-24T13:27:09.990Z,100916.91
2019-03-24T13:29:37.653Z,100908.03
2019-03-24T13:32:05.389Z,100912.63
2019-03-24T13:34:33.091Z,100906.09
2019-03-24T13:37:00.694Z,100914.98
2019-03-24T13:39:28.298Z,100908.45
2019-03-24T13:41:55.967Z,100908.64
2019-03-24T13:44:23.581Z,100900.95
2019-03-24T13:46:51.197Z,100903.62
2019-03-24T13:49:18.849Z,100899.75
2019-03-24T13:51:46.519Z,100890.59
2019-03-24T13:54:14.144Z,100892.45
2019-03-24T13:56:41.764Z,100879.66
2019-03-24T13:59:09.422Z,100873.90
2019-03-24T14:01:37.054Z,100875.66
2019-03-24T14:04:04.705Z,100876.22
2019-03-24T14:06:32.274Z,100868.27
2019-03-24T14:08:59.910Z,100871.71
2019-03-24T14:11:27.511Z,100865.19
2019-03-24T14:13:55.145Z,100863.09
2019-03-24T14:16:22.747Z,100855.61
2019-03-24T14:18:50.364Z,100856.44
2019-03-24T14:21:18.011Z,100860.02
2019-03-24T14:23:45.612Z,100846.80
2019-03-24T14:26:13.213Z,100855.36
2019-03-24T14:28:40.824Z,100844.19
2019-03-24T14:31:08.438Z,100842.09
2019-03-24T14:33:36.046Z,100831.04
2019-03-24T14:36:03.755Z,100825.74
2019-03-24T14:38:31.355Z,100814.62
2019-03-24T14:40:58.957Z,100812.24
2019-03-24T14:43:26.560Z,100809.33
2019-03-24T14:45:54.178Z,100802.91
2019-03-24T14:48:21.780Z,100801.39
2019-03-24T14:50:54.321Z,100799.80
2019-03-24T14:53:18.958Z,100790.85
2019-03-24T14:55:46.608Z,100788.14
2019-03-24T14:58:14.206Z,100786.55
2019-03-24T15:00:42.330Z,100786.72
2019-03-24T15:03:10.224Z,100779.83
2019-03-24T15:05:37.826Z,100780.55
2019-03-24T15:08:06.669Z,100784.16
2019-03-24T15:10:34.290Z,100784.80
2019-03-24T15:13:02.002Z,100783.56
2019-03-24T15:15:29.606Z,100772.36
2019-03-24T15:17:57.236Z,100775.97
2019-03-24T15:20:24.876Z,100776.23
2019-03-24T15:22:52.496Z,100771.89
2019-03-24T15:25:20.124Z,100765.00
2019-03-24T15:27:47.753Z,100765.92
2019-03-24T15:30:15.627Z,100760.33
2019-03-24T15:32:43.293Z,100760.91
2019-03-24T15:35:11.004Z,100752.26
2019-03-24T15:37:38.638Z,100754.17
2019-03-24T15:40:07.698Z,100743.98
2019-03-24T15:42:35.308Z,100741.95
2019-03-24T15:45:02.999Z,100746.32
2019-03-24T15:47:30.579Z,100739.80
2019-03-24T15:49:58.259Z,100745.16
2019-03-24T15:52:25.890Z,100742.14
2019-03-24T15:54:53.499Z,100737.77
2019-03-24T15:57:21.115Z,100741.92
2019-03-24T15:59:50.422Z,100745.67
2019-03-24T16:02:18.281Z,100754.22
2019-03-24T16:04:45.895Z,100758.39
2019-03-24T16:07:13.540Z,100756.75
2019-03-24T16:09:41.393Z,100760.88
2019-03-24T16:12:09.009Z,100759.11
2019-03-24T16:14:36.654Z,100750.17
2019-03-24T16:17:04.267Z,100747.59
2019-03-24T16:19:31.962Z,100751.23
2019-03-24T16:21:59.610Z,100749.14
2019-03-24T16:24:27.235Z,100747.53
2019-03-24T16:26:54.865Z,100743.64
2019-03-24T16:29:22.479Z,100744.73
2019-03-24T16:31:50.130Z,100733.43
2019-03-24T16:34:17.748Z,100722.13
2019-03-24T16:36:45.355Z,100721.44
2019-03-24T16:39:12.985Z,100727.37
2019-03-24T16:41:40.593Z,100712.11
2019-03-24T16:44:08.240Z,100711.86
2019-03-24T16:46:35.871Z,100704.91
2019-03-24T16:49:03.581Z,100702.39
2019-03-24T16:51:38.395Z,100704.33
2019-03-24T16:54:00.710Z,100701.31
2019-03-24T16:56:29.097Z,100694.05
2019-03-24T16:58:56.710Z,100701.59
2019-03-24T17:01:24.334Z,100701.34
2019-03-24T17:03:51.968Z,100715.08
2019-03-24T17:06:19.563Z,100703.80
2019-03-24T17:08:47.192Z,100702.08
2019-03-24T17:11:14.800Z,100703.88
2019-03-24T17:13:42.440Z,100704.00
2019-03-24T17:16:10.051Z,100703.28
2019-03-24T17:18:37.669Z,100695.03
2019-03-24T17:21:05.295Z,100700.86
2019-03-24T17:23:32.940Z,100693.41
2019-03-24T17:26:00.567Z,100694.34
2019-03-24T17:28:28.193Z,100700.59
2019-03-24T17:30:55.808Z,100702.42
2019-03-24T17:33:23.422Z,100706.12
2019-03-24T17:35:51.051Z,100695.63
2019-03-24T17:38:18.719Z,100687.35
2019-03-24T17:40:46.447Z,100680.86
2019-03-24T17:43:14.054Z,100678.36
2019-03-24T17:45:41.710Z,100678.88
2019-03-24T17:48:09.396Z,100677.70
2019-03-24T17:50:37.050Z,100673.34
2019-03-24T17:53:06.657Z,100671.69
2019-03-24T17:55:34.217Z,100667.34
2019-03-24T17:58:01.879Z,100672.23
2019-03-24T18:00:37.595Z,100669.69
2019-03-24T18:03:05.334Z,100661.87
2019-03-24T18:05:32.954Z,100656.14
2019-03-24T18:08:00.614Z,100653.56
2019-03-24T18:10:28.247Z,100660.16
2019-03-24T18:12:56.105Z,100656.70
2019-03-24T18:15:23.729Z,100661.13
2019-03-24T18:17:51.377Z,100656.43
2019-03-24T18:20:29.228Z,100652.13
2019-03-24T18:22:56.972Z,100657.81
2019-03-24T18:25:24.611Z,100652.20
2019-03-24T18:27:52.249Z,100648.77
2019-03-24T18:30:20.175Z,100643.55
2019-03-24T18:32:47.839Z,100651.06
2019-03-24T18:35:15.687Z,100646.25
2019-03-24T18:37:43.356Z,100651.17
2019-03-24T18:40:11.445Z,100646.42
2019-03-24T18:42:39.108Z,100651.75
2019-03-24T18:45:08.649Z,100647.81
2019-03-24T18:47:39.262Z,100645.64
2019-03-24T18:50:07.680Z,100635.16
2019-03-24T18:52:35.333Z,100643.56
2019-03-24T18:55:06.603Z,100636.99
2019-03-24T18:57:35.702Z,100624.79
2019-03-24T19:00:05.017Z,100617.81
2019-03-24T19:02:32.891Z,100623.53
2019-03-24T19:05:00.733Z,100625.81
2019-03-24T19:07:28.352Z,100624.11
2019-03-24T19:09:56.063Z,100628.56
2019-03-24T19:12:24.806Z,100628.57
2019-03-24T19:14:54.242Z,100625.12
2019-03-24T19:17:21.861Z,100615.96
2019-03-24T19:19:49.520Z,100610.30
2019-03-24T19:22:18.482Z,100606.81
2019-03-24T19:24:46.187Z,100605.98
2019-03-24T19:27:13.848Z,100606.90
2019-03-24T19:29:41.446Z,100599.50
2019-03-24T19:32:09.077Z,100599.52
2019-03-24T19:34:37.230Z,100599.97
2019-03-24T19:37:04.826Z,100601.78
2019-03-24T19:39:32.462Z,100601.78
2019-03-24T19:42:00.077Z,100600.92
2019-03-24T19:44:27.695Z,100594.77
2019-03-24T19:46:55.336Z,100594.40
2019-03-24T19:49:22.994Z,100596.58
2019-03-24T19:51:50.640Z,100590.06
2019-03-24T19:54:18.279Z,100585.75
2019-03-24T19:56:45.884Z,100577.00
2019-03-24T19:59:13.530Z,100575.30
2019-03-24T20:01:41.188Z,100587.18
2019-03-24T20:04:09.291Z,100580.66
2019-03-24T20:06:36.948Z,100585.06
2019-03-24T20:09:07.523Z,100590.73
2019-03-24T20:11:35.143Z,100596.45
2019-03-24T20:14:02.778Z,100576.31
2019-03-24T20:16:30.371Z,100571.10
2019-03-24T20:18:57.973Z,100568.98
2019-03-24T20:21:25.589Z,100572.58
2019-03-24T20:23:53.193Z,100565.23
2019-03-24T20:26:20.884Z,100563.97
2019-03-24T20:28:48.458Z,100563.53
2019-03-24T20:31:16.142Z,100560.48
2019-03-24T20:33:43.762Z,100570.55
2019-03-24T20:36:11.412Z,100562.30
2019-03-24T20:38:38.979Z,100564.94
2019-03-24T20:41:06.586Z,100558.41
2019-03-24T20:43:34.247Z,100559.28
2019-03-24T20:46:01.834Z,100552.30
2019-03-24T20:48:29.441Z,100553.66
2019-03-24T20:50:57.045Z,100547.12
2019-03-24T20:53:24.651Z,100539.70
2019-03-24T20:55:52.266Z,100544.14
2019-03-24T20:58:19.868Z,100538.95
2019-03-24T21:00:47.480Z,100539.00
2019-03-24T21:03:15.100Z,100538.64
2019-03-24T21:05:42.714Z,100531.70
2019-03-24T21:08:10.359Z,100536.55
2019-03-24T21:10:37.968Z,100536.16
2019-03-24T21:13:05.572Z,100535.70
2019-03-24T21:15:33.182Z,100538.73
2019-03-24T21:18:00.792Z,100534.80
2019-03-24T21:20:28.396Z,100536.16
2019-03-24T21:22:56.499Z,100527.86
2019-03-24T21:25:24.108Z,100526.09
2019-03-24T21:27:51.719Z,100533.53
2019-03-24T21:30:32.029Z,100524.33
2019-03-24T21:32:59.735Z,100526.55
2019-03-24T21:35:27.349Z,100526.09
2019-03-24T21:37:56.735Z,100526.14
2019-03-24T21:40:24.341Z,100521.84
2019-03-24T21:42:51.954Z,100515.77
2019-03-24T21:45:19.554Z,100503.59
2019-03-24T21:47:47.154Z,100498.42
2019-03-24T21:50:14.864Z,100498.97
2019-03-24T21:52:42.475Z,100502.52
2019-03-24T21:55:10.182Z,100506.59
2019-03-24T21:57:37.794Z,100510.98
2019-03-24T22:00:07.528Z,100511.44
2019-03-24T22:02:35.138Z,100510.17
2019-03-24T22:05:02.959Z,100511.98
2019-03-24T22:07:30.556Z,100495.81
2019-03-24T22:09:58.179Z,100490.60
2019-03-24T22:12:25.773Z,100485.39
2019-03-24T22:14:55.192Z,100494.17
2019-03-24T22:17:22.830Z,100499.44
2019-03-24T22:19:50.435Z,100503.83
2019-03-24T22:22:18.080Z,100496.90
2019-03-24T22:24:48.036Z,100499.56
2019-03-24T22:27:15.656Z,100497.84
2019-03-24T22:29:45.062Z,100495.71
2019-03-24T22:32:12.687Z,100492.23
2019-03-24T22:34:40.314Z,100481.36
2019-03-24T22:37:15.752Z,100471.34
2019-03-24T22:39:37.455Z,100466.13
2019-03-24T22:42:05.063Z,100468.31
2019-03-24T22:44:32.667Z,100473.52
2019-03-24T22:47:00.277Z,100473.97
2019-03-24T22:49:27.874Z,100473.52
2019-03-24T22:52:06.601Z,100474.02
2019-03-24T22:54:25.003Z,100469.62
2019-03-24T22:56:52.690Z,100466.17
2019-03-24T22:59:20.346Z,100462.73
2019-03-24T23:01:47.932Z,100460.64
2019-03-24T23:04:16.748Z,100463.31
2019-03-24T23:06:44.350Z,100460.72
2019-03-24T23:09:12.051Z,100453.30
2019-03-24T23:11:39.659Z,100451.58
2019-03-24T23:14:07.269Z,100452.48
2019-03-24T23:16:34.866Z,100449.86
2019-03-24T23:19:02.472Z,100451.63
2019-03-24T23:21:30.111Z,100449.04
2019-03-24T23:23:57.707Z,100446.91
2019-03-24T23:26:25.308Z,100441.66
2019-03-24T23:28:52.927Z,100442.59
2019-03-24T23:31:20.537Z,100445.22
2019-03-24T23:33:48.139Z,100438.73
2019-03-24T23:36:15.747Z,100433.53
2019-03-24T23:38:43.351Z,100437.05
2019-03-24T23:41:10.946Z,100444.03
2019-03-24T23:43:38.537Z,100440.55
2019-03-24T23:46:06.134Z,100446.69
2019-03-24T23:48:33.949Z,100442.75
2019-03-24T23:51:01.665Z,100436.64
2019-03-24T23:53:29.271Z,100429.67
2019-03-24T23:55:56.886Z,100428.81
2019-03-24T23:58:24.504Z,100422.29
